Airfield :
LOGIN :

Register | Disclaimer

   EN    FR    IT 

 










Legend :    VFR   Marginal VFR   IFR   Intensive IFR   Very Intensive IFR
Visi :
Ceiling :
>= 8 km
>= 3000ft
5 to 8 km
1000 to 3000 ft
1500m to 5 km
500 to 1000 ft
800 to 1500m
200 to 500 ft
< 800m
< 200 ft
Symbols :   Thunderstorms  Fog  Heavy snow  Heavy precipitations  Wind > 20 kt
SIGMETs :     Misc.  Thunderstorms  Icing  Turbulence  Mountain Waves  Volcanic Ashes






- Airport Elevation : 187 ft


ETNW - Wunstorf AB

CURRENT METAR :
  • 180520Z VRB01KT 9999 FEW170 BKN330 14/13 Q1015 BLU+BLU+

EXPIRED METARs :
  • 180420Z 08001KT 9999 FEW170 BKN340 13/13 Q1014 BLU+BLU+
  • 180320Z 23003KT 9999 MIFG FEW060 BKN350 13/12 Q1014 BLU+
  • 180220Z VRB03KT 9999 MIFG FEW060 BKN310 13/12 Q1014 BLU+
  • 180120Z 22003KT 9999 MIFG FEW080 BKN310 13/13 Q1014 BLU+

TAF TAF ETNW
Valid from the 17 at 23:00 until the 18 at 23:00 UTC


172221Z 1723/1823 20004KT 9999 NSW SCT070
PROB30 1803/1805 VRB03KT 3000 BR FEW070
BECMG 1811/1813 05005KT 9000 -RA BKN030
TEMPO 1811/1823 08010G10KT 4000 SHRA BKN010CB
PROB30 1811/1823 VRB15G25KT 3000 TSRA BKN005 BKN010CB



MET'MAP, your aeronautical weather chart ! - Copyright ORBIFLY December 2007 - Disclaimer

ORBIFLY MET'MAP TEAM :

Programming & Development : Alexandra Zaïnal
Original concept : Baudouin d'Aumeries
Technical & hardware support : Manuel Goepfert
Assistance : Marc-Olivier Méhu




SOURCES & CREDITS :

   NOAA